sensor_id;sensor_type;location;lat;lon;timestamp;P1;durP1;ratioP1;P2;durP2;ratioP2
1164;SDS011;571;50.930;6.926;2022-12-07T03:45:28;27.30;;;22.23;;
1164;SDS011;571;50.930;6.926;2022-12-07T03:48:25;33.07;;;24.20;;
1164;SDS011;571;50.930;6.926;2022-12-07T03:51:09;28.73;;;23.67;;
1164;SDS011;571;50.930;6.926;2022-12-07T03:53:49;31.07;;;23.50;;
1164;SDS011;571;50.930;6.926;2022-12-07T03:56:26;31.30;;;24.70;;
1164;SDS011;571;50.930;6.926;2022-12-07T03:59:12;33.43;;;25.77;;
1164;SDS011;571;50.930;6.926;2022-12-07T04:01:53;29.90;;;23.37;;
1164;SDS011;571;50.930;6.926;2022-12-07T04:04:21;31.20;;;21.90;;
1164;SDS011;571;50.930;6.926;2022-12-07T04:06:49;37.23;;;24.10;;
1164;SDS011;571;50.930;6.926;2022-12-07T04:09:16;28.87;;;22.57;;
1164;SDS011;571;50.930;6.926;2022-12-07T04:11:43;31.50;;;23.43;;
1164;SDS011;571;50.930;6.926;2022-12-07T04:14:10;34.23;;;23.87;;
1164;SDS011;571;50.930;6.926;2022-12-07T04:16:46;27.27;;;22.73;;
1164;SDS011;571;50.930;6.926;2022-12-07T04:19:15;30.63;;;23.80;;
1164;SDS011;571;50.930;6.926;2022-12-07T04:21:43;35.30;;;23.47;;
1164;SDS011;571;50.930;6.926;2022-12-07T04:24:11;29.17;;;22.67;;
1164;SDS011;571;50.930;6.926;2022-12-07T04:26:41;31.13;;;22.63;;
1164;SDS011;571;50.930;6.926;2022-12-07T04:29:10;29.57;;;24.00;;
1164;SDS011;571;50.930;6.926;2022-12-07T04:31:41;32.20;;;24.20;;
1164;SDS011;571;50.930;6.926;2022-12-07T04:34:08;33.63;;;23.40;;
1164;SDS011;571;50.930;6.926;2022-12-07T04:36:37;25.23;;;21.53;;
1164;SDS011;571;50.930;6.926;2022-12-07T04:39:05;31.00;;;21.97;;
1164;SDS011;571;50.930;6.926;2022-12-07T04:41:33;34.03;;;24.20;;
1164;SDS011;571;50.930;6.926;2022-12-07T04:44:00;31.70;;;23.23;;
1164;SDS011;571;50.930;6.926;2022-12-07T04:46:29;28.47;;;23.00;;
1164;SDS011;571;50.930;6.926;2022-12-07T04:48:57;30.73;;;25.00;;
1164;SDS011;571;50.930;6.926;2022-12-07T04:51:25;26.80;;;21.33;;
1164;SDS011;571;50.930;6.926;2022-12-07T04:53:55;39.67;;;25.87;;
1164;SDS011;571;50.930;6.926;2022-12-07T04:56:23;31.00;;;23.97;;
1164;SDS011;571;50.930;6.926;2022-12-07T04:58:53;32.90;;;26.23;;
1164;SDS011;571;50.930;6.926;2022-12-07T05:01:20;35.60;;;24.03;;
1164;SDS011;571;50.930;6.926;2022-12-07T05:03:48;30.33;;;22.80;;
1164;SDS011;571;50.930;6.926;2022-12-07T05:06:15;33.30;;;22.87;;
1164;SDS011;571;50.930;6.926;2022-12-07T05:08:42;34.63;;;24.83;;
1164;SDS011;571;50.930;6.926;2022-12-07T05:11:13;35.70;;;25.03;;
1164;SDS011;571;50.930;6.926;2022-12-07T05:14:01;34.30;;;26.87;;
1164;SDS011;571;50.930;6.926;2022-12-07T05:16:28;33.00;;;24.17;;
1164;SDS011;571;50.930;6.926;2022-12-07T05:18:55;29.70;;;23.67;;
1164;SDS011;571;50.930;6.926;2022-12-07T05:21:22;34.47;;;25.40;;
1164;SDS011;571;50.930;6.926;2022-12-07T05:23:52;29.60;;;23.60;;
1164;SDS011;571;50.930;6.926;2022-12-07T05:26:21;27.50;;;24.00;;
1164;SDS011;571;50.930;6.926;2022-12-07T05:28:49;30.07;;;23.60;;
1164;SDS011;571;50.930;6.926;2022-12-07T05:31:20;32.90;;;23.73;;
1164;SDS011;571;50.930;6.926;2022-12-07T05:33:48;40.17;;;25.30;;
1164;SDS011;571;50.930;6.926;2022-12-07T05:36:14;33.27;;;24.40;;
1164;SDS011;571;50.930;6.926;2022-12-07T05:38:41;29.53;;;23.50;;
1164;SDS011;571;50.930;6.926;2022-12-07T05:41:08;33.50;;;25.00;;
1164;SDS011;571;50.930;6.926;2022-12-07T05:44:00;25.30;;;20.97;;
1164;SDS011;571;50.930;6.926;2022-12-07T05:46:27;26.20;;;22.87;;
1164;SDS011;571;50.930;6.926;2022-12-07T05:48:57;28.43;;;21.70;;
1164;SDS011;571;50.930;6.926;2022-12-07T05:51:28;26.70;;;22.07;;
1164;SDS011;571;50.930;6.926;2022-12-07T05:53:55;25.93;;;19.00;;
1164;SDS011;571;50.930;6.926;2022-12-07T05:56:22;26.20;;;20.17;;
1164;SDS011;571;50.930;6.926;2022-12-07T05:58:49;30.90;;;21.70;;
1164;SDS011;571;50.930;6.926;2022-12-07T06:01:35;24.73;;;19.90;;
1164;SDS011;571;50.930;6.926;2022-12-07T06:04:02;29.27;;;20.77;;
1164;SDS011;571;50.930;6.926;2022-12-07T06:06:29;29.67;;;22.30;;
1164;SDS011;571;50.930;6.926;2022-12-07T06:08:55;30.00;;;21.03;;
1164;SDS011;571;50.930;6.926;2022-12-07T06:11:22;27.90;;;20.97;;
1164;SDS011;571;50.930;6.926;2022-12-07T06:14:06;28.67;;;21.90;;
1164;SDS011;571;50.930;6.926;2022-12-07T06:16:33;33.37;;;22.50;;
1164;SDS011;571;50.930;6.926;2022-12-07T06:19:02;33.80;;;25.93;;
1164;SDS011;571;50.930;6.926;2022-12-07T06:21:29;36.90;;;28.97;;
1164;SDS011;571;50.930;6.926;2022-12-07T06:23:56;33.00;;;24.93;;
1164;SDS011;571;50.930;6.926;2022-12-07T06:26:22;33.97;;;27.13;;
1164;SDS011;571;50.930;6.926;2022-12-07T06:28:49;34.57;;;25.23;;
1164;SDS011;571;50.930;6.926;2022-12-07T06:31:16;33.40;;;25.00;;
1164;SDS011;571;50.930;6.926;2022-12-07T06:33:44;35.43;;;24.50;;
1164;SDS011;571;50.930;6.926;2022-12-07T06:36:11;38.20;;;26.77;;
1164;SDS011;571;50.930;6.926;2022-12-07T06:38:38;34.57;;;23.33;;
1164;SDS011;571;50.930;6.926;2022-12-07T06:41:05;34.97;;;25.80;;
1164;SDS011;571;50.930;6.926;2022-12-07T06:43:32;31.87;;;25.17;;
1164;SDS011;571;50.930;6.926;2022-12-07T06:46:01;32.83;;;25.83;;
1164;SDS011;571;50.930;6.926;2022-12-07T06:48:28;34.10;;;24.03;;
1164;SDS011;571;50.930;6.926;2022-12-07T06:50:58;38.00;;;26.03;;
1164;SDS011;571;50.930;6.926;2022-12-07T06:53:26;39.37;;;25.63;;
1164;SDS011;571;50.930;6.926;2022-12-07T06:55:52;34.70;;;27.70;;
1164;SDS011;571;50.930;6.926;2022-12-07T06:58:21;39.50;;;24.73;;
1164;SDS011;571;50.930;6.926;2022-12-07T07:00:48;35.87;;;26.30;;
1164;SDS011;571;50.930;6.926;2022-12-07T07:03:18;40.37;;;27.00;;
1164;SDS011;571;50.930;6.926;2022-12-07T07:05:45;35.07;;;26.80;;
1164;SDS011;571;50.930;6.926;2022-12-07T07:08:19;35.97;;;26.40;;
1164;SDS011;571;50.930;6.926;2022-12-07T07:10:49;35.67;;;24.87;;
1164;SDS011;571;50.930;6.926;2022-12-07T07:13:16;32.90;;;25.17;;
1164;SDS011;571;50.930;6.926;2022-12-07T07:15:43;37.03;;;25.87;;
1164;SDS011;571;50.930;6.926;2022-12-07T07:18:10;33.40;;;25.73;;
1164;SDS011;571;50.930;6.926;2022-12-07T07:20:40;35.17;;;26.43;;
1164;SDS011;571;50.930;6.926;2022-12-07T07:23:07;29.70;;;23.37;;
1164;SDS011;571;50.930;6.926;2022-12-07T07:25:35;34.73;;;24.17;;
1164;SDS011;571;50.930;6.926;2022-12-07T07:28:02;30.63;;;24.60;;
1164;SDS011;571;50.930;6.926;2022-12-07T07:30:30;29.30;;;22.13;;
1164;SDS011;571;50.930;6.926;2022-12-07T07:32:57;30.60;;;21.30;;
1164;SDS011;571;50.930;6.926;2022-12-07T07:35:24;30.13;;;25.73;;
1164;SDS011;571;50.930;6.926;2022-12-07T07:37:51;30.43;;;24.87;;
1164;SDS011;571;50.930;6.926;2022-12-07T07:40:21;32.90;;;26.10;;
1164;SDS011;571;50.930;6.926;2022-12-07T07:42:50;35.37;;;24.27;;
1164;SDS011;571;50.930;6.926;2022-12-07T07:45:22;31.87;;;24.80;;
1164;SDS011;571;50.930;6.926;2022-12-07T07:47:50;34.13;;;26.40;;
1164;SDS011;571;50.930;6.926;2022-12-07T07:50:17;36.30;;;28.33;;
1164;SDS011;571;50.930;6.926;2022-12-07T07:52:44;40.90;;;28.13;;
1164;SDS011;571;50.930;6.926;2022-12-07T07:55:14;33.40;;;26.70;;
1164;SDS011;571;50.930;6.926;2022-12-07T07:57:44;34.60;;;26.20;;
1164;SDS011;571;50.930;6.926;2022-12-07T08:00:13;38.23;;;26.07;;
1164;SDS011;571;50.930;6.926;2022-12-07T08:02:41;34.67;;;27.40;;
1164;SDS011;571;50.930;6.926;2022-12-07T08:05:08;35.53;;;25.37;;
1164;SDS011;571;50.930;6.926;2022-12-07T08:07:36;32.57;;;25.83;;
1164;SDS011;571;50.930;6.926;2022-12-07T08:10:10;33.23;;;25.63;;
1164;SDS011;571;50.930;6.926;2022-12-07T08:12:41;34.70;;;27.20;;
1164;SDS011;571;50.930;6.926;2022-12-07T08:15:27;31.83;;;24.30;;
1164;SDS011;571;50.930;6.926;2022-12-07T08:17:55;34.60;;;24.80;;
1164;SDS011;571;50.930;6.926;2022-12-07T08:20:22;42.40;;;26.70;;
1164;SDS011;571;50.930;6.926;2022-12-07T08:22:49;31.63;;;25.43;;
1164;SDS011;571;50.930;6.926;2022-12-07T08:25:16;22.20;;;19.03;;
1164;SDS011;571;50.930;6.926;2022-12-07T08:27:46;31.40;;;22.77;;
1164;SDS011;571;50.930;6.926;2022-12-07T08:30:17;29.50;;;23.47;;
1164;SDS011;571;50.930;6.926;2022-12-07T08:32:46;34.60;;;24.10;;
1164;SDS011;571;50.930;6.926;2022-12-07T08:35:14;33.63;;;22.60;;
1164;SDS011;571;50.930;6.926;2022-12-07T08:37:41;29.43;;;20.37;;
1164;SDS011;571;50.930;6.926;2022-12-07T08:40:12;25.53;;;19.73;;
1164;SDS011;571;50.930;6.926;2022-12-07T08:42:43;26.13;;;19.03;;
1164;SDS011;571;50.930;6.926;2022-12-07T08:45:11;26.13;;;20.20;;
1164;SDS011;571;50.930;6.926;2022-12-07T08:47:42;28.93;;;19.63;;
1164;SDS011;571;50.930;6.926;2022-12-07T08:50:16;24.43;;;18.53;;
1164;SDS011;571;50.930;6.926;2022-12-07T08:52:44;24.37;;;18.57;;
1164;SDS011;571;50.930;6.926;2022-12-07T08:55:16;26.73;;;18.97;;
1164;SDS011;571;50.930;6.926;2022-12-07T08:57:43;22.70;;;19.13;;
1164;SDS011;571;50.930;6.926;2022-12-07T09:00:10;22.47;;;18.60;;
1164;SDS011;571;50.930;6.926;2022-12-07T09:02:42;26.53;;;19.83;;
1164;SDS011;571;50.930;6.926;2022-12-07T09:05:12;22.43;;;18.23;;
1164;SDS011;571;50.930;6.926;2022-12-07T09:07:40;21.33;;;16.00;;
1164;SDS011;571;50.930;6.926;2022-12-07T09:10:12;25.23;;;18.03;;
1164;SDS011;571;50.930;6.926;2022-12-07T09:13:16;22.57;;;17.50;;
1164;SDS011;571;50.930;6.926;2022-12-07T09:15:43;22.43;;;15.30;;
1164;SDS011;571;50.930;6.926;2022-12-07T09:18:10;20.20;;;15.63;;
1164;SDS011;571;50.930;6.926;2022-12-07T09:20:41;23.00;;;15.40;;
1164;SDS011;571;50.930;6.926;2022-12-07T09:23:08;22.93;;;15.40;;
1164;SDS011;571;50.930;6.926;2022-12-07T09:25:38;18.50;;;16.50;;
1164;SDS011;571;50.930;6.926;2022-12-07T09:28:05;19.03;;;15.20;;
1164;SDS011;571;50.930;6.926;2022-12-07T09:30:36;18.00;;;14.00;;
1164;SDS011;571;50.930;6.926;2022-12-07T09:33:06;18.40;;;14.20;;
1164;SDS011;571;50.930;6.926;2022-12-07T09:35:33;24.97;;;15.60;;
1164;SDS011;571;50.930;6.926;2022-12-07T09:38:01;18.33;;;14.50;;
1164;SDS011;571;50.930;6.926;2022-12-07T09:40:28;21.33;;;14.30;;
1164;SDS011;571;50.930;6.926;2022-12-07T09:42:59;19.50;;;14.50;;
1164;SDS011;571;50.930;6.926;2022-12-07T09:45:27;17.97;;;14.43;;
1164;SDS011;571;50.930;6.926;2022-12-07T09:47:57;16.70;;;12.60;;
1164;SDS011;571;50.930;6.926;2022-12-07T09:50:27;14.83;;;10.47;;
1164;SDS011;571;50.930;6.926;2022-12-07T09:53:04;15.03;;;11.13;;
1164;SDS011;571;50.930;6.926;2022-12-07T09:55:34;17.13;;;12.33;;
1164;SDS011;571;50.930;6.926;2022-12-07T09:58:06;17.87;;;13.47;;
1164;SDS011;571;50.930;6.926;2022-12-07T10:00:36;16.70;;;13.30;;
1164;SDS011;571;50.930;6.926;2022-12-07T10:06:22;15.53;;;11.90;;
1164;SDS011;571;50.930;6.926;2022-12-07T10:08:54;18.20;;;11.40;;
1164;SDS011;571;50.930;6.926;2022-12-07T10:11:21;17.63;;;10.87;;
1164;SDS011;571;50.930;6.926;2022-12-07T10:13:51;17.53;;;10.37;;
1164;SDS011;571;50.930;6.926;2022-12-07T10:16:28;16.87;;;11.83;;
1164;SDS011;571;50.930;6.926;2022-12-07T10:19:20;11.73;;;10.60;;
1164;SDS011;571;50.930;6.926;2022-12-07T10:22:00;18.57;;;10.60;;
1164;SDS011;571;50.930;6.926;2022-12-07T10:24:42;12.60;;;9.40;;
1164;SDS011;571;50.930;6.926;2022-12-07T10:27:17;13.50;;;10.00;;
1164;SDS011;571;50.930;6.926;2022-12-07T10:29:49;11.53;;;9.50;;
1164;SDS011;571;50.930;6.926;2022-12-07T10:32:28;10.77;;;8.83;;
1164;SDS011;571;50.930;6.926;2022-12-07T10:35:17;13.50;;;9.40;;
1164;SDS011;571;50.930;6.926;2022-12-07T10:37:47;14.27;;;9.40;;
1164;SDS011;571;50.930;6.926;2022-12-07T10:40:25;12.77;;;9.03;;
1164;SDS011;571;50.930;6.926;2022-12-07T10:43:00;16.60;;;9.63;;
1164;SDS011;571;50.930;6.926;2022-12-07T10:45:34;17.07;;;9.70;;
1164;SDS011;571;50.930;6.926;2022-12-07T10:48:11;12.53;;;8.13;;
1164;SDS011;571;50.930;6.926;2022-12-07T10:50:51;16.10;;;8.47;;
1164;SDS011;571;50.930;6.926;2022-12-07T10:53:32;11.17;;;7.67;;
1164;SDS011;571;50.930;6.926;2022-12-07T10:56:33;12.13;;;8.07;;
1164;SDS011;571;50.930;6.926;2022-12-07T10:59:18;12.53;;;8.70;;
1164;SDS011;571;50.930;6.926;2022-12-07T11:02:06;9.40;;;8.00;;
1164;SDS011;571;50.930;6.926;2022-12-07T11:04:50;10.47;;;7.57;;
1164;SDS011;571;50.930;6.926;2022-12-07T11:07:27;16.23;;;10.07;;
1164;SDS011;571;50.930;6.926;2022-12-07T11:10:08;12.60;;;8.63;;
1164;SDS011;571;50.930;6.926;2022-12-07T11:12:52;12.50;;;8.00;;
1164;SDS011;571;50.930;6.926;2022-12-07T11:15:42;10.90;;;7.87;;
1164;SDS011;571;50.930;6.926;2022-12-07T11:18:21;11.17;;;6.83;;
1164;SDS011;571;50.930;6.926;2022-12-07T11:20:55;12.47;;;7.47;;
1164;SDS011;571;50.930;6.926;2022-12-07T11:23:39;13.37;;;8.07;;
1164;SDS011;571;50.930;6.926;2022-12-07T11:26:21;13.77;;;7.43;;
1164;SDS011;571;50.930;6.926;2022-12-07T11:29:02;10.20;;;7.10;;
1164;SDS011;571;50.930;6.926;2022-12-07T11:31:44;9.87;;;6.47;;
1164;SDS011;571;50.930;6.926;2022-12-07T11:34:19;11.23;;;6.67;;
1164;SDS011;571;50.930;6.926;2022-12-07T11:36:56;12.13;;;6.50;;
1164;SDS011;571;50.930;6.926;2022-12-07T11:39:28;9.43;;;6.90;;
1164;SDS011;571;50.930;6.926;2022-12-07T11:42:02;11.47;;;7.10;;
1164;SDS011;571;50.930;6.926;2022-12-07T11:44:45;9.33;;;6.23;;
1164;SDS011;571;50.930;6.926;2022-12-07T11:47:25;31.63;;;7.10;;
1164;SDS011;571;50.930;6.926;2022-12-07T11:50:13;8.80;;;6.03;;
1164;SDS011;571;50.930;6.926;2022-12-07T11:52:53;9.90;;;6.70;;
1164;SDS011;571;50.930;6.926;2022-12-07T11:55:38;13.03;;;7.43;;
1164;SDS011;571;50.930;6.926;2022-12-07T11:58:14;15.27;;;6.60;;
1164;SDS011;571;50.930;6.926;2022-12-07T12:00:50;8.33;;;6.80;;
1164;SDS011;571;50.930;6.926;2022-12-07T12:03:23;14.60;;;7.17;;
1164;SDS011;571;50.930;6.926;2022-12-07T12:05:55;12.80;;;7.60;;
1164;SDS011;571;50.930;6.926;2022-12-07T12:08:23;10.30;;;7.67;;
1164;SDS011;571;50.930;6.926;2022-12-07T12:11:00;16.30;;;7.23;;
1164;SDS011;571;50.930;6.926;2022-12-07T12:13:39;13.73;;;9.03;;
1164;SDS011;571;50.930;6.926;2022-12-07T12:16:23;15.07;;;9.37;;
1164;SDS011;571;50.930;6.926;2022-12-07T12:19:10;11.93;;;9.53;;
1164;SDS011;571;50.930;6.926;2022-12-07T12:21:48;13.90;;;9.53;;
1164;SDS011;571;50.930;6.926;2022-12-07T12:24:22;20.00;;;10.97;;
1164;SDS011;571;50.930;6.926;2022-12-07T12:26:57;13.97;;;8.80;;
1164;SDS011;571;50.930;6.926;2022-12-07T12:29:33;15.73;;;10.93;;
1164;SDS011;571;50.930;6.926;2022-12-07T12:32:17;18.57;;;10.90;;
1164;SDS011;571;50.930;6.926;2022-12-07T12:38:23;16.90;;;10.20;;
1164;SDS011;571;50.930;6.926;2022-12-07T12:40:58;24.83;;;11.13;;
1164;SDS011;571;50.930;6.926;2022-12-07T12:43:42;20.70;;;10.27;;
1164;SDS011;571;50.930;6.926;2022-12-07T12:46:37;12.53;;;10.37;;
1164;SDS011;571;50.930;6.926;2022-12-07T12:49:34;12.73;;;9.57;;
1164;SDS011;571;50.930;6.926;2022-12-07T12:55:15;13.60;;;10.17;;
1164;SDS011;571;50.930;6.926;2022-12-07T13:04:25;11.77;;;8.90;;
1164;SDS011;571;50.930;6.926;2022-12-07T13:07:13;14.07;;;9.23;;
1164;SDS011;571;50.930;6.926;2022-12-07T13:10:08;13.90;;;10.73;;
1164;SDS011;571;50.930;6.926;2022-12-07T13:12:55;10.50;;;7.27;;
1164;SDS011;571;50.930;6.926;2022-12-07T13:15:39;12.23;;;8.30;;
1164;SDS011;571;50.930;6.926;2022-12-07T13:22:00;11.60;;;7.90;;
1164;SDS011;571;50.930;6.926;2022-12-07T13:24:28;13.60;;;8.50;;
1164;SDS011;571;50.930;6.926;2022-12-07T13:27:06;10.97;;;8.37;;
1164;SDS011;571;50.930;6.926;2022-12-07T13:29:37;11.67;;;9.10;;
1164;SDS011;571;50.930;6.926;2022-12-07T13:32:17;14.03;;;10.37;;
1164;SDS011;571;50.930;6.926;2022-12-07T13:34:51;15.70;;;9.50;;
1164;SDS011;571;50.930;6.926;2022-12-07T13:37:21;10.67;;;9.27;;
1164;SDS011;571;50.930;6.926;2022-12-07T13:39:54;20.40;;;12.73;;
1164;SDS011;571;50.930;6.926;2022-12-07T13:42:28;16.50;;;9.80;;
1164;SDS011;571;50.930;6.926;2022-12-07T13:45:20;15.33;;;9.60;;
1164;SDS011;571;50.930;6.926;2022-12-07T13:48:05;11.60;;;7.40;;
1164;SDS011;571;50.930;6.926;2022-12-07T13:50:37;12.90;;;8.97;;
1164;SDS011;571;50.930;6.926;2022-12-07T13:53:07;13.20;;;8.03;;
1164;SDS011;571;50.930;6.926;2022-12-07T13:55:46;12.40;;;8.00;;
1164;SDS011;571;50.930;6.926;2022-12-07T13:58:14;10.97;;;8.60;;
1164;SDS011;571;50.930;6.926;2022-12-07T14:00:42;12.20;;;8.50;;
1164;SDS011;571;50.930;6.926;2022-12-07T14:06:15;9.37;;;7.40;;
1164;SDS011;571;50.930;6.926;2022-12-07T14:08:50;13.83;;;8.30;;
1164;SDS011;571;50.930;6.926;2022-12-07T14:11:34;12.70;;;8.00;;
1164;SDS011;571;50.930;6.926;2022-12-07T14:14:05;12.90;;;8.87;;
1164;SDS011;571;50.930;6.926;2022-12-07T14:16:33;10.80;;;8.50;;
1164;SDS011;571;50.930;6.926;2022-12-07T14:19:01;11.53;;;9.33;;
1164;SDS011;571;50.930;6.926;2022-12-07T14:24:16;11.40;;;8.60;;
1164;SDS011;571;50.930;6.926;2022-12-07T14:27:00;10.37;;;8.13;;
1164;SDS011;571;50.930;6.926;2022-12-07T14:29:30;12.17;;;8.23;;
1164;SDS011;571;50.930;6.926;2022-12-07T14:34:55;11.77;;;8.43;;
1164;SDS011;571;50.930;6.926;2022-12-07T14:37:26;15.80;;;11.40;;
1164;SDS011;571;50.930;6.926;2022-12-07T14:43:15;17.27;;;9.77;;
1164;SDS011;571;50.930;6.926;2022-12-07T14:45:46;19.10;;;11.93;;
1164;SDS011;571;50.930;6.926;2022-12-07T14:48:25;11.43;;;9.23;;
1164;SDS011;571;50.930;6.926;2022-12-07T14:50:52;13.93;;;11.20;;
1164;SDS011;571;50.930;6.926;2022-12-07T14:53:52;13.97;;;9.87;;
1164;SDS011;571;50.930;6.926;2022-12-07T14:59:40;11.93;;;10.20;;
1164;SDS011;571;50.930;6.926;2022-12-07T15:02:27;13.93;;;10.70;;
1164;SDS011;571;50.930;6.926;2022-12-07T15:04:56;12.87;;;10.80;;
1164;SDS011;571;50.930;6.926;2022-12-07T15:07:25;12.50;;;9.87;;
1164;SDS011;571;50.930;6.926;2022-12-07T15:09:57;12.40;;;9.87;;
1164;SDS011;571;50.930;6.926;2022-12-07T15:15:54;12.70;;;9.70;;
1164;SDS011;571;50.930;6.926;2022-12-07T15:18:37;14.73;;;10.70;;
1164;SDS011;571;50.930;6.926;2022-12-07T15:21:10;15.50;;;10.53;;
1164;SDS011;571;50.930;6.926;2022-12-07T15:23:44;12.93;;;11.20;;
1164;SDS011;571;50.930;6.926;2022-12-07T15:26:38;14.47;;;11.33;;
1164;SDS011;571;50.930;6.926;2022-12-07T15:29:13;15.07;;;10.30;;
1164;SDS011;571;50.930;6.926;2022-12-07T15:34:41;12.87;;;10.00;;
1164;SDS011;571;50.930;6.926;2022-12-07T15:37:11;11.33;;;9.27;;
1164;SDS011;571;50.930;6.926;2022-12-07T15:39:52;14.70;;;9.63;;
1164;SDS011;571;50.930;6.926;2022-12-07T15:42:52;11.63;;;8.17;;
1164;SDS011;571;50.930;6.926;2022-12-07T15:46:02;9.07;;;8.20;;
1164;SDS011;571;50.930;6.926;2022-12-07T16:33:19;9.57;;;7.07;;
1164;SDS011;571;50.930;6.926;2022-12-07T16:39:46;7.23;;;6.60;;
1164;SDS011;571;50.930;6.926;2022-12-07T16:55:59;5.43;;;4.90;;
1164;SDS011;571;50.930;6.926;2022-12-07T17:03:12;6.00;;;5.50;;
1164;SDS011;571;50.930;6.926;2022-12-07T17:06:29;7.33;;;4.93;;
1164;SDS011;571;50.930;6.926;2022-12-07T17:23:08;8.30;;;5.27;;
1164;SDS011;571;50.930;6.926;2022-12-07T17:26:50;6.90;;;5.70;;
1164;SDS011;571;50.930;6.926;2022-12-07T17:32:44;6.83;;;6.10;;
1164;SDS011;571;50.930;6.926;2022-12-07T17:39:16;7.97;;;7.07;;
1164;SDS011;571;50.930;6.926;2022-12-07T17:42:24;10.80;;;8.07;;
1164;SDS011;571;50.930;6.926;2022-12-07T17:46:04;7.60;;;6.80;;
1164;SDS011;571;50.930;6.926;2022-12-07T17:48:59;10.87;;;8.93;;
1164;SDS011;571;50.930;6.926;2022-12-07T17:54:39;12.93;;;9.33;;
1164;SDS011;571;50.930;6.926;2022-12-07T17:58:20;11.33;;;10.13;;
1164;SDS011;571;50.930;6.926;2022-12-07T18:01:30;15.30;;;11.70;;
1164;SDS011;571;50.930;6.926;2022-12-07T18:10:49;14.27;;;12.70;;
1164;SDS011;571;50.930;6.926;2022-12-07T18:16:37;17.00;;;13.93;;
1164;SDS011;571;50.930;6.926;2022-12-07T18:22:33;15.03;;;13.47;;
1164;SDS011;571;50.930;6.926;2022-12-07T18:25:34;14.97;;;12.37;;
1164;SDS011;571;50.930;6.926;2022-12-07T18:28:02;17.53;;;14.77;;
1164;SDS011;571;50.930;6.926;2022-12-07T18:31:20;15.53;;;13.93;;
1164;SDS011;571;50.930;6.926;2022-12-07T18:36:47;19.50;;;14.23;;
1164;SDS011;571;50.930;6.926;2022-12-07T18:40:57;17.47;;;13.10;;
1164;SDS011;571;50.930;6.926;2022-12-07T18:43:50;14.07;;;11.50;;
1164;SDS011;571;50.930;6.926;2022-12-07T18:46:49;14.27;;;10.97;;
1164;SDS011;571;50.930;6.926;2022-12-07T18:49:48;17.60;;;13.60;;
1164;SDS011;571;50.930;6.926;2022-12-07T18:56:29;15.33;;;12.97;;
1164;SDS011;571;50.930;6.926;2022-12-07T18:59:02;14.30;;;12.80;;
1164;SDS011;571;50.930;6.926;2022-12-07T19:03:07;24.80;;;14.43;;
1164;SDS011;571;50.930;6.926;2022-12-07T19:05:39;17.70;;;13.03;;
1164;SDS011;571;50.930;6.926;2022-12-07T19:09:04;16.27;;;13.27;;
1164;SDS011;571;50.930;6.926;2022-12-07T19:11:59;14.80;;;13.20;;
1164;SDS011;571;50.930;6.926;2022-12-07T19:14:46;17.23;;;13.73;;
1164;SDS011;571;50.930;6.926;2022-12-07T19:17:35;15.00;;;13.30;;
1164;SDS011;571;50.930;6.926;2022-12-07T19:20:16;16.80;;;14.00;;
1164;SDS011;571;50.930;6.926;2022-12-07T19:23:02;18.20;;;14.03;;
1164;SDS011;571;50.930;6.926;2022-12-07T19:28:33;20.50;;;15.17;;
1164;SDS011;571;50.930;6.926;2022-12-07T19:31:14;20.57;;;14.90;;
1164;SDS011;571;50.930;6.926;2022-12-07T19:33:52;15.97;;;13.60;;
1164;SDS011;571;50.930;6.926;2022-12-07T19:36:21;22.40;;;17.53;;
1164;SDS011;571;50.930;6.926;2022-12-07T19:38:55;19.80;;;16.47;;
1164;SDS011;571;50.930;6.926;2022-12-07T19:44:59;25.30;;;16.30;;
1164;SDS011;571;50.930;6.926;2022-12-07T19:47:49;19.83;;;16.10;;
1164;SDS011;571;50.930;6.926;2022-12-07T19:50:40;30.03;;;17.97;;
1164;SDS011;571;50.930;6.926;2022-12-07T19:56:42;22.00;;;17.00;;
1164;SDS011;571;50.930;6.926;2022-12-07T19:59:37;20.77;;;15.37;;
1164;SDS011;571;50.930;6.926;2022-12-07T20:02:41;25.60;;;17.67;;
1164;SDS011;571;50.930;6.926;2022-12-07T20:05:52;21.80;;;15.30;;
1164;SDS011;571;50.930;6.926;2022-12-07T20:08:49;22.87;;;17.63;;
1164;SDS011;571;50.930;6.926;2022-12-07T20:11:37;24.13;;;17.70;;
1164;SDS011;571;50.930;6.926;2022-12-07T20:14:38;19.97;;;16.80;;
1164;SDS011;571;50.930;6.926;2022-12-07T20:17:28;20.93;;;16.10;;
1164;SDS011;571;50.930;6.926;2022-12-07T20:20:05;22.00;;;16.50;;
1164;SDS011;571;50.930;6.926;2022-12-07T20:22:44;24.33;;;16.20;;
1164;SDS011;571;50.930;6.926;2022-12-07T20:25:33;19.77;;;16.90;;
1164;SDS011;571;50.930;6.926;2022-12-07T20:28:11;21.20;;;16.43;;
1164;SDS011;571;50.930;6.926;2022-12-07T20:30:44;23.50;;;17.43;;
1164;SDS011;571;50.930;6.926;2022-12-07T20:33:20;23.57;;;16.47;;
1164;SDS011;571;50.930;6.926;2022-12-07T20:36:03;20.90;;;17.00;;
1164;SDS011;571;50.930;6.926;2022-12-07T20:38:35;24.00;;;16.17;;
1164;SDS011;571;50.930;6.926;2022-12-07T20:41:11;23.40;;;18.23;;
1164;SDS011;571;50.930;6.926;2022-12-07T20:43:56;21.67;;;16.47;;
1164;SDS011;571;50.930;6.926;2022-12-07T20:46:34;18.23;;;15.67;;
1164;SDS011;571;50.930;6.926;2022-12-07T20:49:03;19.23;;;15.07;;
1164;SDS011;571;50.930;6.926;2022-12-07T20:51:41;20.77;;;17.07;;
1164;SDS011;571;50.930;6.926;2022-12-07T20:54:15;21.63;;;17.10;;
1164;SDS011;571;50.930;6.926;2022-12-07T20:56:56;23.43;;;15.90;;
1164;SDS011;571;50.930;6.926;2022-12-07T20:59:30;21.63;;;15.50;;
1164;SDS011;571;50.930;6.926;2022-12-07T21:02:00;23.50;;;17.20;;
1164;SDS011;571;50.930;6.926;2022-12-07T21:04:31;22.80;;;15.73;;
1164;SDS011;571;50.930;6.926;2022-12-07T21:07:04;20.40;;;17.13;;
1164;SDS011;571;50.930;6.926;2022-12-07T21:12:42;27.03;;;18.30;;
1164;SDS011;571;50.930;6.926;2022-12-07T21:15:16;25.40;;;15.33;;
1164;SDS011;571;50.930;6.926;2022-12-07T21:17:45;21.03;;;16.20;;
1164;SDS011;571;50.930;6.926;2022-12-07T21:20:24;21.13;;;16.00;;
1164;SDS011;571;50.930;6.926;2022-12-07T21:22:57;26.73;;;16.47;;
1164;SDS011;571;50.930;6.926;2022-12-07T21:25:28;18.57;;;15.60;;
1164;SDS011;571;50.930;6.926;2022-12-07T21:28:00;18.27;;;14.07;;
1164;SDS011;571;50.930;6.926;2022-12-07T21:30:45;19.43;;;15.40;;
1164;SDS011;571;50.930;6.926;2022-12-07T21:33:17;15.17;;;11.63;;
1164;SDS011;571;50.930;6.926;2022-12-07T21:38:44;18.93;;;14.73;;
1164;SDS011;571;50.930;6.926;2022-12-07T21:41:19;20.50;;;15.90;;
1164;SDS011;571;50.930;6.926;2022-12-07T21:43:56;21.53;;;15.67;;
1164;SDS011;571;50.930;6.926;2022-12-07T21:46:34;22.27;;;14.30;;
1164;SDS011;571;50.930;6.926;2022-12-07T21:49:12;20.37;;;13.00;;
1164;SDS011;571;50.930;6.926;2022-12-07T21:51:53;20.57;;;13.93;;
1164;SDS011;571;50.930;6.926;2022-12-07T22:00:43;22.53;;;14.40;;
1164;SDS011;571;50.930;6.926;2022-12-07T22:03:18;18.50;;;14.50;;
1164;SDS011;571;50.930;6.926;2022-12-07T22:05:49;18.63;;;14.67;;
1164;SDS011;571;50.930;6.926;2022-12-07T22:08:27;18.17;;;14.37;;
1164;SDS011;571;50.930;6.926;2022-12-07T22:11:06;17.43;;;14.30;;
1164;SDS011;571;50.930;6.926;2022-12-07T22:13:50;22.90;;;16.27;;
1164;SDS011;571;50.930;6.926;2022-12-07T22:19:45;18.23;;;14.83;;
1164;SDS011;571;50.930;6.926;2022-12-07T22:22:37;19.80;;;13.43;;
1164;SDS011;571;50.930;6.926;2022-12-07T22:27:57;18.20;;;13.50;;
1164;SDS011;571;50.930;6.926;2022-12-07T22:30:45;20.80;;;15.30;;
1164;SDS011;571;50.930;6.926;2022-12-07T22:33:18;21.70;;;15.83;;
1164;SDS011;571;50.930;6.926;2022-12-07T22:36:00;21.53;;;16.40;;
1164;SDS011;571;50.930;6.926;2022-12-07T22:38:42;21.70;;;17.63;;
1164;SDS011;571;50.930;6.926;2022-12-07T22:41:36;22.40;;;17.23;;
1164;SDS011;571;50.930;6.926;2022-12-07T22:44:20;25.57;;;18.00;;
1164;SDS011;571;50.930;6.926;2022-12-07T22:49:49;22.03;;;16.87;;
1164;SDS011;571;50.930;6.926;2022-12-07T22:52:44;24.90;;;18.20;;